Hlavní strana
METAR-TAF:

METAR-TAF

Letiště :

Moultrie Municipal Airport

Moultrie, Georgie, Spojené státy americké

zeměpisná šířka: 31-05-05N, zeměpisná délka: 083-48-11W, výška: 90 m

Aktuální stav počasí

Zpráva byla vytvořena před 7 minutami, v 18:15 UTC
Severoseverozápadní vítr 5 kt
Teplota 11°C
Vlhkost vzduchu 94%
Tlak 1016 hPa
Viditelnost: 2.4 km
Zataženo ve výšce 500 ft
slabé mrholení

METAR: KMGR 151815Z AUTO 34005KT 1 1/2SM -DZ OVC005 11/10 A3001 RMK AO2

Čas: 13:22 (18:22 UTC)


TAF: chybějící

Stav a předpovědi počasí z více než 4 000 letišť (zprávy METAR a TAF).

Červené a žluté tečky na mapě představují dostupné meteorologické stanice.

Když kurzor umístíte na tečku, zobrazí se název stanice.

Pak kliknutím zobrazíte stav a předpověď počasí.

Chcete-li změnit mapu, kliknutím na zelené tlačítko se znaménkem +mapu přiblížíte, kliknutím na zelené tlačítko se znaménkem – mapu oddálíte a kliknutím na zelené šipky přejdete na sousední mapy.


METAR-TAF: